createdAt,value
2019-05-11T00:00:00.000Z,12.9
2019-05-11T00:05:00.000Z,12.8
2019-05-11T00:10:00.000Z,12.7
2019-05-11T00:15:00.000Z,12.7
2019-05-11T00:20:00.000Z,12.6
2019-05-11T00:25:00.000Z,12.6
2019-05-11T00:30:00.000Z,12.5
2019-05-11T00:35:00.000Z,12.5
2019-05-11T00:40:00.000Z,12.5
2019-05-11T00:45:00.000Z,12.5
2019-05-11T00:50:00.000Z,12.4
2019-05-11T00:55:00.000Z,12.4
2019-05-11T01:00:00.000Z,12.4
2019-05-11T01:05:00.000Z,12.4
2019-05-11T01:10:00.000Z,12.5
2019-05-11T01:15:00.000Z,12.5
2019-05-11T01:20:00.000Z,12.5
2019-05-11T01:25:00.000Z,12.5
2019-05-11T01:30:00.000Z,12.5
2019-05-11T01:35:00.000Z,12.5
2019-05-11T01:41:00.000Z,12.5
2019-05-11T01:46:00.000Z,12.5
2019-05-11T01:51:00.000Z,12.5
2019-05-11T01:56:00.000Z,12.5
2019-05-11T02:01:00.000Z,12.5
2019-05-11T02:06:00.000Z,12.5
2019-05-11T02:11:00.000Z,12.6
2019-05-11T02:16:00.000Z,12.6
2019-05-11T02:21:00.000Z,12.7
2019-05-11T02:26:00.000Z,12.8
2019-05-11T02:31:00.000Z,12.8
2019-05-11T02:36:00.000Z,12.8
2019-05-11T02:41:00.000Z,12.9
2019-05-11T02:46:00.000Z,12.8
2019-05-11T02:51:00.000Z,12.8
2019-05-11T02:56:00.000Z,12.8
2019-05-11T03:01:00.000Z,12.8
2019-05-11T03:06:00.000Z,12.8
2019-05-11T03:11:00.000Z,12.7
2019-05-11T03:16:00.000Z,12.7
2019-05-11T03:21:00.000Z,12.8
2019-05-11T03:26:00.000Z,12.7
2019-05-11T03:31:00.000Z,12.6
2019-05-11T03:37:00.000Z,12.7
2019-05-11T03:42:00.000Z,12.7
2019-05-11T03:47:00.000Z,12.7
2019-05-11T03:52:00.000Z,12.6
2019-05-11T03:57:00.000Z,12.6
2019-05-11T04:02:00.000Z,12.6
2019-05-11T04:07:00.000Z,12.7
2019-05-11T04:12:00.000Z,12.7
2019-05-11T04:17:00.000Z,12.8
2019-05-11T04:22:00.000Z,12.8
2019-05-11T04:27:00.000Z,12.9
2019-05-11T04:32:00.000Z,13.0
2019-05-11T04:37:00.000Z,13.2
2019-05-11T04:42:00.000Z,13.4
2019-05-11T04:47:00.000Z,13.6
2019-05-11T04:52:00.000Z,13.7
2019-05-11T04:57:00.000Z,13.8
2019-05-11T05:02:00.000Z,13.7
2019-05-11T05:08:00.000Z,13.6
2019-05-11T05:13:00.000Z,13.6
2019-05-11T05:18:00.000Z,13.6
2019-05-11T05:23:00.000Z,13.5
2019-05-11T05:28:00.000Z,13.5
2019-05-11T05:33:00.000Z,13.4
2019-05-11T05:38:00.000Z,13.4
2019-05-11T05:43:00.000Z,13.5
2019-05-11T05:48:00.000Z,13.7
2019-05-11T05:53:00.000Z,13.8
2019-05-11T05:58:00.000Z,14.0
2019-05-11T06:03:00.000Z,14.1
2019-05-11T06:08:00.000Z,14.3
2019-05-11T06:13:00.000Z,14.5
2019-05-11T06:18:00.000Z,14.7
2019-05-11T06:23:00.000Z,14.9
2019-05-11T06:28:00.000Z,15.1
2019-05-11T06:33:00.000Z,15.3
2019-05-11T06:38:00.000Z,15.5
2019-05-11T06:43:00.000Z,15.8
2019-05-11T06:49:00.000Z,16.2
2019-05-11T06:54:00.000Z,16.3
2019-05-11T06:59:00.000Z,16.4
2019-05-11T07:04:00.000Z,16.5
2019-05-11T07:09:00.000Z,16.6
2019-05-11T07:14:00.000Z,17.1
2019-05-11T07:19:00.000Z,17.4
2019-05-11T07:24:00.000Z,17.6
2019-05-11T07:29:00.000Z,17.7
2019-05-11T07:34:00.000Z,17.6
2019-05-11T07:39:00.000Z,18.1
2019-05-11T07:44:00.000Z,18.5
2019-05-11T07:49:00.000Z,18.7
2019-05-11T07:54:00.000Z,18.7
2019-05-11T07:59:00.000Z,18.7
2019-05-11T08:04:00.000Z,18.7
2019-05-11T08:09:00.000Z,18.9
2019-05-11T08:14:00.000Z,19.3
2019-05-11T08:20:00.000Z,19.8
2019-05-11T08:25:00.000Z,20.3
2019-05-11T08:30:00.000Z,20.7
2019-05-11T08:35:00.000Z,21.0
2019-05-11T08:40:00.000Z,21.4
2019-05-11T08:45:00.000Z,21.8
2019-05-11T08:50:00.000Z,22.2
2019-05-11T08:55:00.000Z,22.6
2019-05-11T09:00:00.000Z,23.0
2019-05-11T09:05:00.000Z,23.4
2019-05-11T09:10:00.000Z,23.6
2019-05-11T09:15:00.000Z,23.7
2019-05-11T09:20:00.000Z,23.8
2019-05-11T09:25:00.000Z,23.8
2019-05-11T09:30:00.000Z,23.9
2019-05-11T09:35:00.000Z,24.1
2019-05-11T09:40:00.000Z,24.3
2019-05-11T09:45:00.000Z,24.5
2019-05-11T09:50:00.000Z,24.7
2019-05-11T09:55:00.000Z,24.5
2019-05-11T10:01:00.000Z,24.6
2019-05-11T10:06:00.000Z,24.7
2019-05-11T10:11:00.000Z,24.7
2019-05-11T10:16:00.000Z,24.4
2019-05-11T10:21:00.000Z,24.3
2019-05-11T10:26:00.000Z,24.3
2019-05-11T10:31:00.000Z,24.2
2019-05-11T10:36:00.000Z,24.0
2019-05-11T10:41:00.000Z,23.5
2019-05-11T10:46:00.000Z,23.0
2019-05-11T10:51:00.000Z,22.6
2019-05-11T10:56:00.000Z,22.4
2019-05-11T11:01:00.000Z,22.1
2019-05-11T11:06:00.000Z,21.8
2019-05-11T11:11:00.000Z,21.6
2019-05-11T11:16:00.000Z,21.3
2019-05-11T11:21:00.000Z,21.1
2019-05-11T11:26:00.000Z,20.9
2019-05-11T11:31:00.000Z,20.7
2019-05-11T11:36:00.000Z,20.7
2019-05-11T11:41:00.000Z,20.8
2019-05-11T11:46:00.000Z,20.9
2019-05-11T11:51:00.000Z,21.1
2019-05-11T11:56:00.000Z,21.5
2019-05-11T12:01:00.000Z,21.9
2019-05-11T12:07:00.000Z,22.2
2019-05-11T12:12:00.000Z,22.2
2019-05-11T12:17:00.000Z,22.3
2019-05-11T12:22:00.000Z,22.4
2019-05-11T12:27:00.000Z,22.5
2019-05-11T12:32:00.000Z,22.7
2019-05-11T12:37:00.000Z,23.0
2019-05-11T12:42:00.000Z,23.2
2019-05-11T12:47:00.000Z,23.2
2019-05-11T12:52:00.000Z,23.0
2019-05-11T12:57:00.000Z,22.9
2019-05-11T13:02:00.000Z,22.8
2019-05-11T13:07:00.000Z,23.1
2019-05-11T13:12:00.000Z,23.5
2019-05-11T13:17:00.000Z,23.8
2019-05-11T13:22:00.000Z,23.9
2019-05-11T13:27:00.000Z,24.3
2019-05-11T13:32:00.000Z,24.4
2019-05-11T13:37:00.000Z,24.3
2019-05-11T13:42:00.000Z,24.0
2019-05-11T13:47:00.000Z,23.8
2019-05-11T13:52:00.000Z,23.5
2019-05-11T13:57:00.000Z,23.4
2019-05-11T14:03:00.000Z,23.2
2019-05-11T14:08:00.000Z,23.1
2019-05-11T14:13:00.000Z,23.0
2019-05-11T14:18:00.000Z,22.8
2019-05-11T14:23:00.000Z,22.8
2019-05-11T14:28:00.000Z,22.8
2019-05-11T14:33:00.000Z,22.9
2019-05-11T14:38:00.000Z,22.8
2019-05-11T14:43:00.000Z,22.7
2019-05-11T14:48:00.000Z,22.7
2019-05-11T14:53:00.000Z,22.6
2019-05-11T14:58:00.000Z,22.4
2019-05-11T15:03:00.000Z,22.2
2019-05-11T15:08:00.000Z,22.0
2019-05-11T15:13:00.000Z,21.9
2019-05-11T15:18:00.000Z,21.8
2019-05-11T15:23:00.000Z,21.6
2019-05-11T15:28:00.000Z,21.5
2019-05-11T15:33:00.000Z,21.3
2019-05-11T15:38:00.000Z,21.2
2019-05-11T15:43:00.000Z,21.3
2019-05-11T15:48:00.000Z,21.2
2019-05-11T15:54:00.000Z,21.0
2019-05-11T15:59:00.000Z,20.8
2019-05-11T16:04:00.000Z,20.6
2019-05-11T16:09:00.000Z,20.4
2019-05-11T16:14:00.000Z,20.3
2019-05-11T16:19:00.000Z,20.3
2019-05-11T16:24:00.000Z,20.2
2019-05-11T16:29:00.000Z,20.2
2019-05-11T16:34:00.000Z,20.2
2019-05-11T16:39:00.000Z,20.1
2019-05-11T16:44:00.000Z,20.0
2019-05-11T16:49:00.000Z,19.9
2019-05-11T16:54:00.000Z,19.8
2019-05-11T16:59:00.000Z,19.7
2019-05-11T17:04:00.000Z,19.6
2019-05-11T17:09:00.000Z,19.5
2019-05-11T17:14:00.000Z,19.4
2019-05-11T17:19:00.000Z,19.3
2019-05-11T17:24:00.000Z,19.2
2019-05-11T17:29:00.000Z,19.1
2019-05-11T17:34:00.000Z,19.0
2019-05-11T17:39:00.000Z,18.9
2019-05-11T17:44:00.000Z,18.9
2019-05-11T17:49:00.000Z,18.8
2019-05-11T17:55:00.000Z,18.7
2019-05-11T18:00:00.000Z,18.6
2019-05-11T18:05:00.000Z,18.5
2019-05-11T18:10:00.000Z,18.3
2019-05-11T18:15:00.000Z,18.1
2019-05-11T18:20:00.000Z,17.6
2019-05-11T18:25:00.000Z,16.8
2019-05-11T18:30:00.000Z,15.8
2019-05-11T18:35:00.000Z,14.9
2019-05-11T18:40:00.000Z,14.3
2019-05-11T18:45:00.000Z,13.8
2019-05-11T18:50:00.000Z,13.5
2019-05-11T18:55:00.000Z,13.1
2019-05-11T19:00:00.000Z,12.9
2019-05-11T19:05:00.000Z,12.7
2019-05-11T19:10:00.000Z,12.5
2019-05-11T19:15:00.000Z,12.3
2019-05-11T19:20:00.000Z,12.1
2019-05-11T19:25:00.000Z,11.9
2019-05-11T19:30:00.000Z,11.7
2019-05-11T19:35:00.000Z,11.6
2019-05-11T19:40:00.000Z,11.4
2019-05-11T19:45:00.000Z,11.3
2019-05-11T19:50:00.000Z,11.1
2019-05-11T19:56:00.000Z,11.0
2019-05-11T20:01:00.000Z,10.9
2019-05-11T20:06:00.000Z,10.8
2019-05-11T20:11:00.000Z,10.8
2019-05-11T20:16:00.000Z,10.7
2019-05-11T20:21:00.000Z,10.7
2019-05-11T20:26:00.000Z,10.6
2019-05-11T20:31:00.000Z,10.6
2019-05-11T20:36:00.000Z,10.5
2019-05-11T20:41:00.000Z,10.5
2019-05-11T20:46:00.000Z,10.4
2019-05-11T20:51:00.000Z,10.4
2019-05-11T20:56:00.000Z,10.4
2019-05-11T21:01:00.000Z,10.3
2019-05-11T21:06:00.000Z,10.3
2019-05-11T21:11:00.000Z,10.4
2019-05-11T21:16:00.000Z,10.4
2019-05-11T21:21:00.000Z,10.4
2019-05-11T21:26:00.000Z,10.4
2019-05-11T21:31:00.000Z,10.4
2019-05-11T21:36:00.000Z,10.3
2019-05-11T21:41:00.000Z,10.3
2019-05-11T21:46:00.000Z,10.3
2019-05-11T21:51:00.000Z,10.2
2019-05-11T21:57:00.000Z,10.2
2019-05-11T22:02:00.000Z,10.2
2019-05-11T22:07:00.000Z,10.2
2019-05-11T22:12:00.000Z,10.2
2019-05-11T22:17:00.000Z,10.2
2019-05-11T22:22:00.000Z,10.2
2019-05-11T22:27:00.000Z,10.2
2019-05-11T22:32:00.000Z,10.2
2019-05-11T22:37:00.000Z,10.3
2019-05-11T22:42:00.000Z,10.3
2019-05-11T22:47:00.000Z,10.4
2019-05-11T22:52:00.000Z,10.4
2019-05-11T22:57:00.000Z,10.4
2019-05-11T23:02:00.000Z,10.5
2019-05-11T23:07:00.000Z,10.5
2019-05-11T23:12:00.000Z,10.6
2019-05-11T23:17:00.000Z,10.6
2019-05-11T23:22:00.000Z,10.7
2019-05-11T23:27:00.000Z,10.7
2019-05-11T23:32:00.000Z,10.7
2019-05-11T23:38:00.000Z,10.7
2019-05-11T23:43:00.000Z,10.8
2019-05-11T23:48:00.000Z,10.8
2019-05-11T23:53:00.000Z,10.7
2019-05-11T23:58:00.000Z,10.7
